Time;durP1;ratioP1;P1;durP2;ratioP2;P2;SDS_P1;SDS_P2;PMS_P1;PMS_P2;Temp;Humidity;BMP_temperature;BMP_pressure;BME280_temperature;BME280_humidity;BME280_pressure;Samples;Min_cycle;Max_cycle;Signal;HPM_P1;HPM_P2
2023/04/29 00:00:48;;;;;;;56.70;32.20;;;9.50;99.90;;;;;;5017851;28;20032;-84
2023/04/29 00:03:13;;;;;;;62.25;33.78;;;9.60;99.90;;;;;;5033574;28;20029;-84
2023/04/29 00:05:39;;;;;;;55.38;30.90;;;9.60;99.90;;;;;;5014849;28;20040;-83
2023/04/29 00:08:05;;;;;;;60.58;31.70;;;9.50;99.90;;;;;;5015405;28;20448;-83
2023/04/29 00:10:31;;;;;;;57.45;33.40;;;9.50;99.90;;;;;;5031693;28;20440;-84
2023/04/29 00:13:00;;;;;;;57.42;34.08;;;9.50;99.90;;;;;;5017723;28;20037;-84
2023/04/29 00:15:25;;;;;;;59.50;34.20;;;9.50;99.90;;;;;;5017906;28;20044;-83
2023/04/29 00:17:51;;;;;;;64.22;33.50;;;9.40;99.90;;;;;;5032567;28;20412;-83
2023/04/29 00:20:17;;;;;;;61.35;32.75;;;9.50;99.90;;;;;;5033509;28;20030;-83
2023/04/29 00:22:43;;;;;;;61.35;34.03;;;9.40;99.90;;;;;;5035632;28;20041;-83
2023/04/29 00:25:10;;;;;;;55.80;33.08;;;9.40;99.90;;;;;;5015556;28;20071;-83
2023/04/29 00:27:39;;;;;;;61.33;31.70;;;9.40;99.90;;;;;;5030967;28;20045;-84
2023/04/29 00:30:08;;;;;;;62.50;32.42;;;9.40;99.90;;;;;;5023160;28;20037;-83
2023/04/29 00:32:35;;;;;;;56.85;31.65;;;9.40;99.90;;;;;;5039769;28;20049;-83
2023/04/29 00:35:01;;;;;;;61.90;33.78;;;9.40;99.90;;;;;;5027616;28;20416;-84
2023/04/29 00:37:26;;;;;;;63.55;33.90;;;9.30;99.90;;;;;;5013502;28;20040;-83
2023/04/29 00:39:52;;;;;;;60.08;32.25;;;9.30;99.90;;;;;;5031351;28;20046;-84
2023/04/29 00:42:18;;;;;;;73.07;35.40;;;9.30;99.90;;;;;;5018343;28;20384;-83
2023/04/29 00:44:44;;;;;;;62.45;31.33;;;9.30;99.90;;;;;;5014472;28;20105;-84
2023/04/29 00:47:10;;;;;;;61.65;31.25;;;9.30;99.90;;;;;;5017121;28;20128;-84
2023/04/29 00:49:39;;;;;;;62.97;31.02;;;9.30;99.90;;;;;;5030752;28;20618;-83
2023/04/29 00:52:07;;;;;;;55.78;31.95;;;9.30;99.90;;;;;;5014098;28;20662;-84
2023/04/29 00:54:34;;;;;;;63.47;32.35;;;9.30;99.90;;;;;;5048661;28;20292;-84
2023/04/29 00:57:01;;;;;;;67.22;32.15;;;9.30;99.90;;;;;;5037192;28;20041;-84
2023/04/29 00:59:31;;;;;;;60.25;28.20;;;9.30;99.90;;;;;;5032002;28;20079;-83
2023/04/29 01:02:03;;;;;;;57.70;29.73;;;9.30;99.90;;;;;;5050150;28;20072;-84
2023/04/29 01:04:29;;;;;;;48.65;27.63;;;9.20;99.90;;;;;;5020005;28;20044;-83
2023/04/29 01:07:01;;;;;;;61.22;29.35;;;9.20;99.90;;;;;;5032641;28;20456;-84
2023/04/29 01:09:42;;;;;;;56.05;28.75;;;9.20;99.90;;;;;;5020561;28;20480;-83
2023/04/29 01:12:21;;;;;;;46.33;27.17;;;9.20;99.90;;;;;;5037049;28;20052;-83
2023/04/29 01:14:53;;;;;;;48.97;27.15;;;9.20;99.90;;;;;;5032772;28;20452;-83
2023/04/29 01:17:25;;;;;;;42.78;25.15;;;9.20;99.90;;;;;;5032601;28;20040;-83
2023/04/29 01:19:55;;;;;;;42.85;24.98;;;9.20;99.90;;;;;;5016343;28;20061;-84
2023/04/29 01:22:21;;;;;;;44.95;25.00;;;9.20;99.90;;;;;;5037285;28;20619;-83
2023/04/29 01:24:48;;;;;;;45.13;24.92;;;9.10;99.90;;;;;;5035575;28;20033;-83
2023/04/29 01:27:55;;;;;;;42.97;25.10;;;9.10;99.90;;;;;;5023258;28;20384;-83
2023/04/29 01:30:33;;;;;;;45.92;24.15;;;9.10;99.90;;;;;;5022041;28;20110;-84
2023/04/29 01:33:07;;;;;;;41.80;22.50;;;9.10;99.90;;;;;;5020702;28;20045;-83
2023/04/29 01:36:05;;;;;;;40.25;21.80;;;9.10;99.90;;;;;;5022930;28;20040;-83
2023/04/29 01:38:59;;;;;;;35.58;21.75;;;9.10;99.90;;;;;;5035453;28;20048;-84
2023/04/29 01:41:30;;;;;;;35.92;21.80;;;9.10;99.90;;;;;;5021285;28;20518;-84
2023/04/29 01:43:59;;;;;;;40.50;22.35;;;9.00;99.90;;;;;;5037245;28;20539;-84
2023/04/29 01:46:26;;;;;;;39.05;21.90;;;9.10;99.90;;;;;;5019165;28;20481;-84
2023/04/29 01:48:53;;;;;;;38.30;22.13;;;9.00;99.90;;;;;;5035959;28;20041;-83
2023/04/29 01:51:19;;;;;;;38.05;22.15;;;9.00;99.90;;;;;;5019524;28;20043;-83
2023/04/29 01:53:45;;;;;;;41.30;24.42;;;8.90;99.90;;;;;;5055232;28;20056;-83
2023/04/29 01:56:11;;;;;;;43.60;22.05;;;8.90;99.90;;;;;;5036370;28;20041;-84
2023/04/29 01:58:36;;;;;;;43.88;22.73;;;8.90;99.90;;;;;;5036776;28;20107;-83
2023/04/29 02:01:02;;;;;;;36.47;22.48;;;8.90;99.90;;;;;;5019629;28;20045;-84
2023/04/29 02:03:28;;;;;;;39.53;21.75;;;9.00;99.90;;;;;;5034071;28;20128;-83
2023/04/29 02:05:53;;;;;;;41.90;22.42;;;8.90;99.90;;;;;;5018976;28;20044;-84
2023/04/29 02:08:19;;;;;;;39.38;21.25;;;9.00;99.90;;;;;;5050533;28;20103;-83
2023/04/29 02:10:55;;;;;;;37.13;21.67;;;9.00;99.90;;;;;;5034797;28;20132;-83
2023/04/29 02:13:21;;;;;;;38.08;21.60;;;9.00;99.90;;;;;;5018712;28;20158;-84
2023/04/29 02:15:47;;;;;;;44.90;22.90;;;8.90;99.90;;;;;;5020988;28;20443;-84
2023/04/29 02:18:12;;;;;;;37.42;21.08;;;8.90;99.90;;;;;;5031994;28;20053;-84
2023/04/29 02:20:38;;;;;;;34.85;21.10;;;8.80;99.90;;;;;;5036125;28;20049;-84
2023/04/29 02:23:07;;;;;;;37.80;22.08;;;8.70;99.90;;;;;;5023161;28;20045;-84
2023/04/29 02:25:33;;;;;;;42.17;22.77;;;8.60;99.90;;;;;;5035784;28;20041;-83
2023/04/29 02:28:02;;;;;;;37.47;21.17;;;8.60;99.90;;;;;;5038418;28;20098;-83
2023/04/29 02:30:27;;;;;;;37.92;21.30;;;8.50;99.90;;;;;;5033761;28;20034;-83
2023/04/29 02:32:53;;;;;;;39.30;22.73;;;8.50;99.90;;;;;;5022070;28;20106;-83
2023/04/29 02:35:19;;;;;;;44.03;21.48;;;8.60;99.90;;;;;;5021602;28;20040;-83
2023/04/29 02:37:45;;;;;;;36.45;22.52;;;8.60;99.90;;;;;;5035279;28;20029;-83
2023/04/29 02:40:11;;;;;;;39.72;23.08;;;8.50;99.90;;;;;;5020874;28;20167;-83
2023/04/29 02:42:37;;;;;;;40.20;22.50;;;8.50;99.90;;;;;;5038725;28;20487;-83
2023/04/29 02:45:03;;;;;;;38.78;21.45;;;8.60;99.90;;;;;;5052256;28;20037;-84
2023/04/29 02:47:28;;;;;;;43.25;21.77;;;8.60;99.90;;;;;;5019581;28;20029;-83
2023/04/29 02:49:54;;;;;;;40.13;21.83;;;8.60;99.90;;;;;;5017159;28;20515;-83
2023/04/29 02:52:20;;;;;;;41.42;23.02;;;8.60;99.90;;;;;;5019380;28;20040;-84
2023/04/29 02:54:45;;;;;;;41.88;22.42;;;8.60;99.90;;;;;;5017797;28;20358;-84
2023/04/29 02:57:11;;;;;;;40.60;22.42;;;8.50;99.90;;;;;;5018066;28;20041;-84
2023/04/29 02:59:37;;;;;;;45.17;24.40;;;8.60;99.90;;;;;;5024986;28;20060;-84
2023/04/29 03:02:03;;;;;;;42.97;23.45;;;8.50;99.90;;;;;;5032988;28;20300;-83
2023/04/29 03:04:28;;;;;;;44.53;23.60;;;8.50;99.90;;;;;;5016555;28;20060;-84
2023/04/29 03:06:57;;;;;;;38.80;23.30;;;8.50;99.90;;;;;;5035354;28;20033;-84
2023/04/29 03:09:23;;;;;;;41.40;22.83;;;8.50;99.90;;;;;;5018444;28;20070;-84
2023/04/29 03:11:49;;;;;;;42.90;22.90;;;8.50;99.90;;;;;;5033036;28;20060;-84
2023/04/29 03:14:14;;;;;;;46.97;23.98;;;8.50;99.90;;;;;;5034879;28;20067;-84
2023/04/29 03:16:41;;;;;;;43.70;24.60;;;8.50;99.90;;;;;;5017603;28;20106;-83
2023/04/29 03:19:07;;;;;;;42.50;24.33;;;8.50;99.90;;;;;;5018241;28;20143;-83
2023/04/29 03:21:33;;;;;;;48.95;24.65;;;8.50;99.90;;;;;;5017335;28;20567;-83
2023/04/29 03:23:58;;;;;;;45.75;23.65;;;8.50;99.90;;;;;;5031703;28;20400;-83
2023/04/29 03:26:24;;;;;;;49.42;24.83;;;8.50;99.90;;;;;;5016867;28;20567;-83
2023/04/29 03:28:50;;;;;;;43.03;24.98;;;8.60;99.90;;;;;;5034001;28;20041;-84
2023/04/29 03:31:16;;;;;;;41.50;24.80;;;8.60;99.90;;;;;;5018201;28;20090;-84
2023/04/29 03:33:42;;;;;;;45.78;25.73;;;8.60;99.90;;;;;;5035754;28;20430;-83
2023/04/29 03:36:10;;;;;;;50.55;25.25;;;8.70;99.90;;;;;;5029378;28;20138;-84
2023/04/29 03:38:36;;;;;;;50.05;26.33;;;8.70;99.90;;;;;;5032772;28;20041;-84
2023/04/29 03:41:02;;;;;;;45.47;24.33;;;8.70;99.90;;;;;;5016044;28;20048;-84
2023/04/29 03:43:27;;;;;;;43.03;25.52;;;8.70;99.90;;;;;;5034652;28;20497;-83
2023/04/29 03:45:53;;;;;;;43.13;23.92;;;8.70;99.90;;;;;;5036573;28;20409;-84
2023/04/29 03:48:20;;;;;;;45.10;23.83;;;8.70;99.90;;;;;;5047088;28;20047;-84
2023/04/29 03:50:46;;;;;;;39.83;23.08;;;8.70;99.90;;;;;;5013177;28;20543;-83
2023/04/29 03:53:12;;;;;;;41.05;23.58;;;8.70;99.90;;;;;;5019148;28;20114;-84
2023/04/29 03:55:37;;;;;;;45.35;23.50;;;8.70;99.90;;;;;;5034269;28;20060;-84
2023/04/29 03:58:03;;;;;;;45.67;22.90;;;8.70;99.90;;;;;;5019334;28;20049;-84
2023/04/29 04:00:30;;;;;;;38.67;22.08;;;8.70;99.90;;;;;;5034697;28;20045;-85
2023/04/29 04:02:56;;;;;;;39.45;20.80;;;8.80;99.90;;;;;;5032842;28;20094;-84
2023/04/29 04:05:24;;;;;;;38.30;20.85;;;8.80;99.90;;;;;;5013699;28;20389;-84
2023/04/29 04:07:51;;;;;;;36.35;19.63;;;8.80;99.90;;;;;;5033805;28;20044;-84
2023/04/29 04:10:19;;;;;;;34.38;21.35;;;8.80;99.90;;;;;;5017866;28;20076;-84
2023/04/29 04:12:46;;;;;;;36.22;21.27;;;8.80;99.90;;;;;;5035554;28;20303;-85
2023/04/29 04:15:12;;;;;;;34.08;19.42;;;8.80;99.90;;;;;;5015011;28;20053;-84
2023/04/29 04:17:37;;;;;;;35.25;20.33;;;8.80;99.90;;;;;;5015196;28;20118;-83
2023/04/29 04:20:04;;;;;;;32.35;19.45;;;8.80;99.90;;;;;;5015601;28;20661;-84
2023/04/29 04:22:29;;;;;;;32.55;18.65;;;8.80;99.90;;;;;;5017922;28;20452;-85
2023/04/29 04:24:58;;;;;;;32.47;18.45;;;8.80;99.90;;;;;;5013627;28;20124;-84
2023/04/29 04:27:24;;;;;;;33.65;18.63;;;8.80;99.90;;;;;;5018072;28;20040;-84
2023/04/29 04:29:53;;;;;;;31.00;18.15;;;8.80;99.90;;;;;;5017634;28;20095;-84
2023/04/29 04:32:20;;;;;;;31.75;17.08;;;8.80;99.90;;;;;;5017569;28;20451;-84
2023/04/29 04:34:47;;;;;;;27.52;16.42;;;8.80;99.90;;;;;;5016964;28;20288;-85
2023/04/29 04:37:16;;;;;;;33.97;15.88;;;8.80;99.90;;;;;;5016459;28;20048;-85
2023/04/29 04:39:42;;;;;;;27.95;17.00;;;8.80;99.90;;;;;;5017839;28;20040;-84
2023/04/29 04:42:07;;;;;;;29.10;16.77;;;8.80;99.90;;;;;;5018375;28;20037;-84
2023/04/29 04:44:33;;;;;;;30.52;16.00;;;8.80;99.90;;;;;;5033603;28;20496;-85
2023/04/29 04:47:01;;;;;;;28.83;16.48;;;8.80;99.90;;;;;;5034599;28;20044;-84
2023/04/29 04:49:27;;;;;;;31.45;16.80;;;8.80;99.90;;;;;;5029268;28;20147;-85
2023/04/29 04:51:56;;;;;;;33.38;17.05;;;8.80;99.90;;;;;;5032459;28;20098;-85
2023/04/29 04:54:21;;;;;;;26.20;16.75;;;8.80;99.90;;;;;;5035552;28;20037;-85
2023/04/29 04:56:47;;;;;;;28.33;15.80;;;8.80;99.90;;;;;;5036620;28;20480;-84
2023/04/29 04:59:13;;;;;;;29.52;17.08;;;8.90;99.90;;;;;;5024136;28;20215;-85
2023/04/29 05:01:39;;;;;;;31.83;16.25;;;8.90;99.90;;;;;;5035853;28;20094;-85
2023/04/29 05:04:04;;;;;;;31.30;16.33;;;8.80;99.90;;;;;;5035445;28;20100;-85
2023/04/29 05:06:30;;;;;;;29.05;16.98;;;8.90;99.90;;;;;;5019197;28;20152;-85
2023/04/29 05:08:56;;;;;;;29.20;17.30;;;8.90;99.90;;;;;;5036443;28;20053;-84
2023/04/29 05:11:21;;;;;;;30.73;16.42;;;8.90;99.90;;;;;;5034746;28;20115;-84
2023/04/29 05:13:48;;;;;;;26.90;16.10;;;8.90;99.90;;;;;;5023627;28;20649;-85
2023/04/29 05:16:14;;;;;;;28.38;16.05;;;8.90;99.90;;;;;;5034460;28;20079;-84
2023/04/29 05:18:39;;;;;;;28.10;16.42;;;8.90;99.90;;;;;;5022357;28;20124;-85
2023/04/29 05:21:05;;;;;;;26.73;15.93;;;8.90;99.90;;;;;;5021450;28;20128;-85
2023/04/29 05:23:31;;;;;;;28.92;16.83;;;8.90;99.90;;;;;;5022611;28;20116;-85
2023/04/29 05:25:56;;;;;;;27.13;17.00;;;8.90;99.90;;;;;;5038637;28;20037;-85
2023/04/29 05:28:22;;;;;;;26.95;16.38;;;8.90;99.90;;;;;;5035943;28;20044;-84
2023/04/29 05:30:50;;;;;;;33.97;16.88;;;8.90;99.90;;;;;;5035489;28;20507;-85
2023/04/29 05:33:16;;;;;;;25.20;15.90;;;8.90;99.90;;;;;;5038437;28;20053;-85
2023/04/29 05:35:42;;;;;;;28.23;15.65;;;8.90;99.90;;;;;;5023072;28;20040;-84
2023/04/29 05:38:08;;;;;;;27.95;15.27;;;8.90;99.90;;;;;;5054229;28;20040;-85
2023/04/29 05:40:33;;;;;;;25.70;15.65;;;8.90;99.90;;;;;;5020148;28;20072;-85
2023/04/29 05:42:59;;;;;;;24.20;14.73;;;8.90;99.90;;;;;;5037685;28;20037;-85
2023/04/29 05:45:25;;;;;;;26.20;14.85;;;9.00;99.90;;;;;;5020809;28;20132;-85
2023/04/29 05:47:50;;;;;;;24.45;13.60;;;9.00;99.90;;;;;;5036901;28;20036;-84
2023/04/29 05:50:16;;;;;;;23.98;14.38;;;9.00;99.90;;;;;;5020040;28;20108;-85
2023/04/29 05:52:42;;;;;;;23.25;13.65;;;9.10;99.90;;;;;;5019855;28;20055;-84
2023/04/29 05:55:08;;;;;;;21.92;13.25;;;9.10;99.90;;;;;;5017717;28;20539;-85
2023/04/29 05:57:34;;;;;;;23.30;14.30;;;9.10;99.90;;;;;;5022533;28;20041;-85
2023/04/29 06:00:03;;;;;;;26.13;13.93;;;9.20;99.90;;;;;;5019363;28;20492;-85
2023/04/29 06:02:29;;;;;;;22.60;13.55;;;9.20;99.90;;;;;;5039378;28;20495;-85
2023/04/29 06:04:55;;;;;;;22.33;12.90;;;9.20;99.90;;;;;;5037998;28;20399;-85
2023/04/29 06:07:25;;;;;;;23.52;13.38;;;9.20;99.90;;;;;;5019641;28;20192;-84
2023/04/29 06:09:51;;;;;;;21.65;12.93;;;9.20;99.90;;;;;;5018853;28;20384;-85
2023/04/29 06:12:17;;;;;;;22.85;13.07;;;9.30;99.90;;;;;;5039727;28;20055;-85
2023/04/29 06:14:42;;;;;;;21.25;11.65;;;9.30;99.90;;;;;;5034762;28;20065;-85
2023/04/29 06:17:08;;;;;;;19.67;12.07;;;9.40;99.90;;;;;;5024462;28;20041;-85
2023/04/29 06:19:34;;;;;;;21.58;12.35;;;9.40;99.90;;;;;;5014839;28;20049;-86
2023/04/29 06:21:59;;;;;;;19.48;11.32;;;9.40;99.90;;;;;;5036865;28;20034;-85
2023/04/29 06:24:28;;;;;;;22.00;11.98;;;9.50;99.90;;;;;;5018148;28;20452;-85
2023/04/29 06:26:54;;;;;;;21.25;12.05;;;9.60;99.90;;;;;;5033803;28;20037;-86
2023/04/29 06:29:19;;;;;;;17.27;11.02;;;9.70;99.90;;;;;;5022987;28;20468;-85
2023/04/29 06:31:45;;;;;;;19.92;11.55;;;9.70;99.90;;;;;;5018816;28;20051;-85
2023/04/29 06:34:11;;;;;;;15.35;10.50;;;9.60;99.90;;;;;;5017948;28;20072;-85
2023/04/29 06:36:37;;;;;;;16.88;11.30;;;9.60;99.90;;;;;;5017450;28;20072;-85
2023/04/29 06:39:03;;;;;;;14.85;10.77;;;9.50;99.90;;;;;;5036910;28;20467;-85
2023/04/29 06:41:29;;;;;;;24.95;11.52;;;9.70;99.90;;;;;;5034102;28;20041;-85
2023/04/29 06:43:55;;;;;;;14.55;10.48;;;9.90;99.90;;;;;;5038232;28;20079;-85
2023/04/29 06:46:20;;;;;;;19.05;11.52;;;10.00;99.90;;;;;;5020566;28;20068;-85
2023/04/29 06:48:46;;;;;;;20.45;11.98;;;10.00;99.90;;;;;;5033258;28;20131;-85
2023/04/29 06:51:12;;;;;;;18.42;11.15;;;10.30;99.90;;;;;;5034747;28;20036;-86
2023/04/29 06:53:37;;;;;;;16.17;10.00;;;10.10;99.90;;;;;;5019495;28;20045;-85
2023/04/29 06:56:04;;;;;;;16.73;10.13;;;10.00;99.90;;;;;;5018100;28;20113;-85
2023/04/29 06:58:30;;;;;;;15.57;9.35;;;10.20;99.90;;;;;;5021232;28;20033;-85
2023/04/29 07:00:55;;;;;;;16.40;10.27;;;10.20;99.90;;;;;;5033105;28;20051;-85
2023/04/29 07:03:24;;;;;;;15.38;10.45;;;10.30;99.90;;;;;;5022627;28;20040;-84
2023/04/29 07:05:50;;;;;;;14.02;10.05;;;10.20;99.90;;;;;;5033256;28;20049;-85
2023/04/29 07:08:16;;;;;;;15.90;9.90;;;10.30;99.90;;;;;;5023460;28;20507;-85
2023/04/29 07:10:41;;;;;;;13.35;9.75;;;10.30;99.90;;;;;;5021553;28;20037;-85
2023/04/29 07:13:07;;;;;;;18.48;10.63;;;10.50;99.90;;;;;;5034549;28;20060;-85
2023/04/29 07:15:35;;;;;;;18.65;10.98;;;10.40;99.90;;;;;;5018961;28;20045;-85
2023/04/29 07:18:03;;;;;;;15.45;10.50;;;10.60;99.90;;;;;;5017813;28;20067;-85
2023/04/29 07:20:28;;;;;;;14.40;10.00;;;10.60;99.90;;;;;;5033347;28;20041;-85
2023/04/29 07:22:54;;;;;;;19.08;10.35;;;10.50;99.90;;;;;;5033929;28;20067;-85
2023/04/29 07:25:20;;;;;;;17.13;10.32;;;10.80;99.90;;;;;;5032287;28;20384;-85
2023/04/29 07:27:45;;;;;;;13.32;9.45;;;10.80;99.90;;;;;;5016842;28;20040;-84
2023/04/29 07:30:11;;;;;;;14.57;9.48;;;10.90;99.90;;;;;;5033635;28;20195;-85
2023/04/29 07:32:37;;;;;;;13.18;9.43;;;11.10;99.90;;;;;;5034032;28;20083;-84
2023/04/29 07:35:03;;;;;;;17.33;10.18;;;11.10;99.90;;;;;;5014799;28;20036;-85
2023/04/29 07:37:31;;;;;;;15.13;9.27;;;11.00;99.90;;;;;;5017652;28;20077;-85
2023/04/29 07:39:57;;;;;;;16.95;9.55;;;11.10;99.90;;;;;;5018424;28;20037;-85
2023/04/29 07:42:23;;;;;;;15.13;9.13;;;11.20;99.90;;;;;;5016620;28;20047;-84
2023/04/29 07:44:48;;;;;;;14.77;9.50;;;11.20;99.90;;;;;;5035245;28;20435;-85
2023/04/29 07:47:14;;;;;;;14.25;8.77;;;11.20;99.90;;;;;;5033202;28;20427;-85
2023/04/29 07:49:40;;;;;;;14.38;9.85;;;11.40;99.90;;;;;;5014095;28;20080;-85
2023/04/29 07:52:08;;;;;;;13.98;9.55;;;11.70;99.90;;;;;;5019493;28;20041;-85
2023/04/29 07:54:35;;;;;;;13.95;9.27;;;11.60;99.90;;;;;;5016465;28;20037;-85
2023/04/29 07:57:03;;;;;;;13.82;9.25;;;11.50;99.90;;;;;;5017959;28;20628;-84
2023/04/29 07:59:29;;;;;;;14.10;9.30;;;11.60;99.90;;;;;;5016972;28;20421;-86
2023/04/29 08:01:56;;;;;;;15.43;9.20;;;11.40;99.90;;;;;;5016482;28;20404;-85
2023/04/29 08:04:22;;;;;;;12.45;8.45;;;11.40;99.90;;;;;;5020578;28;20578;-85
2023/04/29 08:06:48;;;;;;;11.38;7.10;;;11.60;99.90;;;;;;5029501;28;20462;-85
2023/04/29 08:09:17;;;;;;;12.80;7.75;;;11.50;99.90;;;;;;5019366;28;20349;-85
2023/04/29 08:11:44;;;;;;;12.80;8.52;;;11.60;99.90;;;;;;5032915;28;20738;-85
2023/04/29 08:14:10;;;;;;;12.52;7.65;;;11.70;99.90;;;;;;5035886;28;20103;-85
2023/04/29 08:16:36;;;;;;;12.30;8.18;;;11.70;99.90;;;;;;5036341;28;20611;-85
2023/04/29 08:19:01;;;;;;;11.38;7.57;;;11.50;99.90;;;;;;5014447;28;20044;-85
2023/04/29 08:21:27;;;;;;;14.90;7.75;;;11.80;99.90;;;;;;5016743;28;20354;-85
2023/04/29 08:23:55;;;;;;;13.75;7.63;;;12.00;99.90;;;;;;5034745;28;20102;-85
2023/04/29 08:26:21;;;;;;;10.10;7.03;;;12.00;99.90;;;;;;5049924;28;20292;-85
2023/04/29 08:28:47;;;;;;;10.13;7.15;;;12.10;99.90;;;;;;5016625;28;20127;-84
2023/04/29 08:31:20;;;;;;;11.40;7.13;;;12.20;99.90;;;;;;5022160;28;20044;-86
2023/04/29 08:33:46;;;;;;;11.90;7.72;;;12.10;99.90;;;;;;5020547;28;20067;-85
2023/04/29 08:36:12;;;;;;;13.65;7.60;;;12.10;99.90;;;;;;5040883;28;20527;-85
2023/04/29 08:38:38;;;;;;;12.07;6.60;;;12.30;99.90;;;;;;5022142;28;20041;-85
2023/04/29 08:41:07;;;;;;;11.77;7.28;;;12.30;99.90;;;;;;5021110;28;20441;-85
2023/04/29 08:43:36;;;;;;;10.63;6.63;;;12.20;99.90;;;;;;5027444;28;20377;-85
2023/04/29 08:46:02;;;;;;;10.43;6.82;;;12.30;99.90;;;;;;5020835;28;20223;-85
2023/04/29 08:48:29;;;;;;;14.48;7.95;;;12.40;99.90;;;;;;5022316;28;20379;-85
2023/04/29 08:50:57;;;;;;;12.35;6.90;;;12.30;99.90;;;;;;5036831;28;20075;-85
2023/04/29 08:53:22;;;;;;;11.05;7.38;;;12.30;99.90;;;;;;5039440;28;20091;-85
2023/04/29 08:55:53;;;;;;;14.95;7.88;;;12.60;99.90;;;;;;5037257;28;20485;-85
2023/04/29 08:58:19;;;;;;;14.52;7.80;;;12.60;99.90;;;;;;5022753;28;20033;-85
2023/04/29 09:00:45;;;;;;;12.48;7.43;;;12.40;99.90;;;;;;5037246;28;20385;-85
2023/04/29 09:03:23;;;;;;;14.98;7.93;;;12.50;99.90;;;;;;5036346;28;20041;-86
2023/04/29 09:05:53;;;;;;;13.02;7.45;;;12.10;99.90;;;;;;5052193;28;20482;-85
2023/04/29 09:08:22;;;;;;;12.32;7.32;;;12.10;99.90;;;;;;5021520;28;20446;-85
2023/04/29 09:10:49;;;;;;;14.60;7.45;;;12.30;99.90;;;;;;5037076;28;20098;-86
2023/04/29 09:13:29;;;;;;;11.05;6.90;;;12.30;99.90;;;;;;5037351;28;20408;-86
2023/04/29 09:15:55;;;;;;;15.13;7.72;;;12.40;99.90;;;;;;5018056;28;20065;-86
2023/04/29 09:18:47;;;;;;;13.82;7.53;;;12.10;99.90;;;;;;5035353;28;20524;-85
2023/04/29 09:21:24;;;;;;;12.65;7.60;;;11.90;99.90;;;;;;5034960;28;20589;-86
2023/04/29 09:24:01;;;;;;;11.00;7.82;;;12.20;99.90;;;;;;5037497;28;20067;-85
2023/04/29 09:26:35;;;;;;;12.32;7.88;;;12.70;99.90;;;;;;5035194;28;20351;-85
2023/04/29 09:29:08;;;;;;;9.40;6.87;;;12.60;99.90;;;;;;5029494;28;20320;-86
2023/04/29 09:31:34;;;;;;;10.00;7.30;;;12.90;99.90;;;;;;5025586;28;20055;-85
2023/04/29 09:34:00;;;;;;;9.13;7.35;;;13.10;99.90;;;;;;5021761;28;20041;-86
2023/04/29 09:36:39;;;;;;;9.27;6.95;;;13.10;99.90;;;;;;5018713;28;20048;-85
2023/04/29 09:39:12;;;;;;;8.95;6.40;;;12.90;99.90;;;;;;5054475;28;20456;-86
2023/04/29 09:41:55;;;;;;;12.75;6.80;;;12.80;99.90;;;;;;5035597;28;20385;-86
2023/04/29 09:44:34;;;;;;;11.02;6.30;;;12.80;99.90;;;;;;5019762;28;20059;-86
2023/04/29 09:47:02;;;;;;;9.43;6.03;;;12.80;99.90;;;;;;5033054;28;20055;-86
2023/04/29 09:49:32;;;;;;;9.65;5.93;;;13.10;99.90;;;;;;5016476;28;20106;-86
2023/04/29 09:52:03;;;;;;;9.77;6.45;;;12.90;99.90;;;;;;5018494;28;20385;-86
2023/04/29 09:54:37;;;;;;;9.18;6.55;;;13.10;99.90;;;;;;5018623;28;20516;-86
2023/04/29 09:57:06;;;;;;;12.82;6.72;;;13.40;99.90;;;;;;5020438;28;20041;-86
2023/04/29 09:59:35;;;;;;;8.43;5.88;;;13.40;99.90;;;;;;5019173;28;20455;-86
2023/04/29 10:02:17;;;;;;;7.68;6.13;;;13.40;99.90;;;;;;5034859;28;20077;-86
2023/04/29 10:04:47;;;;;;;;;;;13.20;99.90;;;;;;5018796;28;20492;-86
2023/04/29 10:07:17;;;;;;;8.43;5.70;;;13.30;99.90;;;;;;5036008;28;19986;-86
2023/04/29 10:09:47;;;;;;;10.63;6.22;;;13.50;99.90;;;;;;5034935;28;20499;-86
2023/04/29 10:12:19;;;;;;;8.60;6.20;;;13.60;99.90;;;;;;5035573;28;20052;-86
2023/04/29 10:15:04;;;;;;;11.77;6.47;;;13.60;99.90;;;;;;5020636;28;20091;-86
2023/04/29 10:18:00;;;;;;;10.68;5.97;;;13.60;99.90;;;;;;5037129;28;20056;-86
2023/04/29 10:20:27;;;;;;;11.43;6.93;;;13.80;99.90;;;;;;5033629;28;20128;-86
2023/04/29 10:22:55;;;;;;;16.42;7.50;;;13.80;99.90;;;;;;5015989;28;20037;-86
2023/04/29 10:25:23;;;;;;;10.25;6.28;;;13.70;99.90;;;;;;5018497;28;20049;-86
2023/04/29 10:27:52;;;;;;;8.95;5.60;;;13.70;99.90;;;;;;5021075;28;20039;-86
2023/04/29 10:30:21;;;;;;;9.95;5.72;;;13.50;99.90;;;;;;5020766;28;20396;-87
2023/04/29 10:32:49;;;;;;;9.90;5.72;;;13.60;99.90;;;;;;5019800;28;20044;-87
2023/04/29 10:35:28;;;;;;;11.02;6.22;;;13.60;99.90;;;;;;5017216;28;20146;-87
2023/04/29 10:37:59;;;;;;;8.50;5.60;;;13.60;99.90;;;;;;5036819;28;20037;-86
2023/04/29 10:40:47;;;;;;;10.52;5.30;;;13.50;99.90;;;;;;5021821;28;20136;-86
2023/04/29 10:43:14;;;;;;;7.82;5.18;;;13.60;99.90;;;;;;5036092;28;20120;-86
2023/04/29 10:45:40;;;;;;;7.60;4.90;;;13.30;99.90;;;;;;5016802;28;20047;-86
2023/04/29 10:48:11;;;;;;;8.98;5.65;;;13.30;99.90;;;;;;5014092;28;20036;-86
2023/04/29 10:50:46;;;;;;;10.23;5.55;;;13.30;99.90;;;;;;5019819;28;20079;-87
2023/04/29 10:53:13;;;;;;;;;;;13.60;99.90;;;;;;5035739;28;20037;-86
2023/04/29 10:55:40;;;;;;;7.63;4.20;;;13.50;99.90;;;;;;5019006;28;20348;-87
2023/04/29 10:58:35;;;;;;;9.77;5.70;;;13.70;99.90;;;;;;5020247;28;20505;-87
2023/04/29 11:01:00;;;;;;;8.40;5.97;;;13.80;99.90;;;;;;5036577;28;20510;-87
2023/04/29 11:03:49;;;;;;;11.07;5.32;;;13.70;99.90;;;;;;5033409;28;20044;-88
2023/04/29 11:06:15;;;;;;;10.02;5.97;;;13.90;99.90;;;;;;5020169;28;20538;-87
2023/04/29 11:08:42;;;;;;;8.25;5.00;;;13.80;1.00;;;;;;5034652;28;20404;-87
2023/04/29 11:11:08;;;;;;;7.55;5.35;;;13.80;1.00;;;;;;5033228;28;20074;-87
2023/04/29 11:13:39;;;;;;;11.07;5.13;;;14.00;67.40;;;;;;5014112;28;20139;-87
2023/04/29 11:16:09;;;;;;;9.88;5.03;;;13.80;99.90;;;;;;5031581;28;20048;-87
2023/04/29 11:18:56;;;;;;;8.30;4.70;;;14.00;99.90;;;;;;5015794;28;20412;-87
2023/04/29 11:21:22;;;;;;;7.18;4.65;;;14.30;99.90;;;;;;5034843;28;20445;-88
2023/04/29 11:23:50;;;;;;;9.40;4.55;;;14.40;99.90;;;;;;5036286;28;20073;-87
2023/04/29 11:26:20;;;;;;;8.25;4.25;;;14.40;99.90;;;;;;5022117;28;20378;-87
2023/04/29 11:28:47;;;;;;;7.95;4.18;;;14.10;99.90;;;;;;5035822;28;20064;-87
2023/04/29 11:31:12;;;;;;;9.27;4.00;;;14.10;99.90;;;;;;5018112;28;20045;-87
2023/04/29 11:33:38;;;;;;;6.85;4.25;;;14.10;1.00;;;;;;5015327;28;20343;-87
2023/04/29 11:36:04;;;;;;;4.70;3.53;;;14.00;99.90;;;;;;5033026;28;20404;-87
2023/04/29 11:38:30;;;;;;;5.03;3.30;;;14.30;99.90;;;;;;5019468;28;20068;-87
2023/04/29 11:40:57;;;;;;;5.05;2.80;;;14.40;99.90;;;;;;5021456;28;20034;-87
2023/04/29 11:43:24;;;;;;;6.32;3.08;;;14.20;1.00;;;;;;5016229;28;20179;-88
2023/04/29 11:45:51;;;;;;;5.53;2.83;;;14.30;99.90;;;;;;5016500;28;20051;-86
2023/04/29 11:48:29;;;;;;;4.25;2.75;;;14.30;1.00;;;;;;5035142;28;20044;-87
2023/04/29 11:50:58;;;;;;;3.10;2.42;;;13.90;99.90;;;;;;5017673;28;20044;-87
2023/04/29 11:53:26;;;;;;;4.07;2.58;;;14.20;99.90;;;;;;5015408;28;20043;-88
2023/04/29 11:55:53;;;;;;;5.47;2.50;;;14.20;99.90;;;;;;5016859;28;20037;-87
2023/04/29 11:58:22;;;;;;;4.78;3.17;;;14.40;99.90;;;;;;5034743;28;20070;-87
2023/04/29 12:00:49;;;;;;;4.38;2.85;;;14.20;99.90;;;;;;5050081;28;20095;-88
2023/04/29 12:03:17;;;;;;;4.72;2.70;;;14.40;99.90;;;;;;5014548;28;20048;-87
2023/04/29 12:05:53;;;;;;;5.03;2.42;;;14.50;1.00;;;;;;5019204;28;20572;-87
2023/04/29 12:08:27;;;;;;;4.80;2.33;;;14.20;1.00;;;;;;5034903;28;20075;-87
2023/04/29 12:10:55;;;;;;;7.50;3.25;;;14.70;99.90;;;;;;5035368;28;20706;-87
2023/04/29 12:13:23;;;;;;;6.93;3.53;;;14.70;99.90;;;;;;5033952;28;20053;-87
2023/04/29 12:15:50;;;;;;;6.72;3.85;;;14.40;1.00;;;;;;5031279;28;20473;-86
2023/04/29 12:18:22;;;;;;;6.15;3.55;;;14.60;60.30;;;;;;5016021;28;20042;-86
2023/04/29 12:20:50;;;;;;;6.47;3.33;;;14.60;99.90;;;;;;5018687;28;20033;-87
2023/04/29 12:23:21;;;;;;;5.47;3.10;;;14.30;99.90;;;;;;5017491;28;20125;-87
2023/04/29 12:25:59;;;;;;;5.15;3.10;;;14.50;99.90;;;;;;5033931;28;20575;-87
2023/04/29 12:28:26;;;;;;;6.57;3.65;;;14.20;99.90;;;;;;5012962;28;20049;-87
2023/04/29 12:30:54;;;;;;;4.78;2.75;;;14.40;1.00;;;;;;5016116;28;20573;-88
2023/04/29 12:33:26;;;;;;;5.70;2.38;;;14.30;99.90;;;;;;5033770;28;20047;-87
2023/04/29 12:35:56;;;;;;;3.35;2.38;;;14.30;99.90;;;;;;5014190;28;20072;-89
2023/04/29 12:38:28;;;;;;;4.32;2.47;;;14.60;99.90;;;;;;5017053;28;20124;-87
2023/04/29 12:40:58;;;;;;;5.03;2.53;;;14.70;99.90;;;;;;5034829;28;20041;-89
2023/04/29 12:43:33;;;;;;;6.35;3.00;;;14.70;40.60;;;;;;5031599;28;20053;-87